Time;durP1;ratioP1;P1;durP2;ratioP2;P2;SDS_P1;SDS_P2;PMS_P1;PMS_P2;Temp;Humidity;BMP_temperature;BMP_pressure;BME280_temperature;BME280_humidity;BME280_pressure;Samples;Min_cycle;Max_cycle;Signal;HPM_P1;HPM_P2
2023/05/19 00:01:15;;;;;;;8.80;4.60;;;;;;;14.22;100.00;95084.00;5016106;28;20433;-83
2023/05/19 00:03:51;;;;;;;5.90;4.30;;;;;;;14.29;100.00;95099.22;5015700;28;20435;-83
2023/05/19 00:06:22;;;;;;;7.70;4.70;;;;;;;14.30;100.00;95090.34;5016179;28;20529;-83
2023/05/19 00:08:50;;;;;;;5.40;4.90;;;;;;;14.30;100.00;95090.34;5014976;28;20878;-83
2023/05/19 00:11:17;;;;;;;7.83;3.97;;;;;;;14.29;100.00;95088.69;5015252;28;20998;-83
2023/05/19 00:13:47;;;;;;;7.53;5.50;;;;;;;14.26;100.00;95085.34;5015885;28;20434;-83
2023/05/19 00:16:14;;;;;;;5.87;4.47;;;;;;;14.26;100.00;95085.34;5015827;28;20527;-83
2023/05/19 00:18:42;;;;;;;4.90;4.40;;;;;;;14.21;100.00;95076.22;5015051;28;20935;-82
2023/05/19 00:27:53;;;;;;;5.40;5.00;;;;;;;14.18;100.00;95076.53;5013943;28;20567;-82
2023/05/19 00:30:21;;;;;;;5.80;4.80;;;;;;;14.13;100.00;95076.94;5015270;28;20509;-83
2023/05/19 00:32:48;;;;;;;17.80;5.37;;;;;;;14.08;100.00;95084.47;5015688;28;20495;-83
2023/05/19 00:35:15;;;;;;;4.37;3.97;;;;;;;14.07;100.00;95074.88;5015297;28;20431;-83
2023/05/19 00:37:42;;;;;;;5.20;4.60;;;;;;;14.10;100.00;95079.03;4997175;28;20446;-82
2023/05/19 00:40:10;;;;;;;7.33;4.60;;;;;;;14.10;100.00;95069.31;5016622;28;20447;-81
2023/05/19 00:42:37;;;;;;;6.10;5.50;;;;;;;14.11;100.00;95068.34;5016023;28;20446;-81
2023/05/19 00:45:06;;;;;;;6.43;4.50;;;;;;;14.11;100.00;95057.78;5016022;28;20448;-81
2023/05/19 00:47:33;;;;;;;5.97;5.20;;;;;;;14.11;100.00;95062.22;5015850;28;20483;-81
2023/05/19 00:50:00;;;;;;;8.93;5.30;;;;;;;14.09;100.00;95067.66;5016197;28;20456;-81
2023/05/19 00:52:27;;;;;;;5.87;5.27;;;;;;;14.07;100.00;95063.50;5015321;28;20436;-81
2023/05/19 00:54:55;;;;;;;4.80;4.40;;;;;;;14.02;100.00;95061.31;5015913;28;20439;-81
2023/05/19 00:57:22;;;;;;;9.50;4.73;;;;;;;14.06;100.00;95073.22;5015309;28;20944;-81
2023/05/19 00:59:49;;;;;;;17.70;5.07;;;;;;;14.03;100.00;95065.59;5015738;28;20451;-81
2023/05/19 01:02:18;;;;;;;8.37;4.83;;;;;;;14.02;100.00;95058.69;5016343;28;20454;-81
2023/05/19 01:04:45;;;;;;;5.47;4.43;;;;;;;14.00;100.00;95063.28;5015224;28;20942;-81
2023/05/19 01:07:12;;;;;;;5.30;4.80;;;;;;;14.01;100.00;95067.56;5015881;28;20427;-81
2023/05/19 01:09:40;;;;;;;5.80;5.20;;;;;;;13.96;100.00;95061.91;5015298;28;20482;-81
2023/05/19 01:12:08;;;;;;;8.13;4.30;;;;;;;13.94;100.00;95064.69;5015071;28;20478;-81
2023/05/19 01:14:34;;;;;;;7.87;4.90;;;;;;;13.92;100.00;95060.53;5015164;28;20452;-80
2023/05/19 01:17:08;;;;;;;5.37;4.87;;;;;;;13.91;100.00;95067.63;5015760;28;20899;-81
2023/05/19 01:20:00;;;;;;;5.83;4.30;;;;;;;13.88;100.00;95060.00;5014517;28;20451;-81
2023/05/19 01:23:05;;;;;;;7.23;4.60;;;;;;;13.92;100.00;95071.91;5014923;28;20438;-81
2023/05/19 01:26:03;;;;;;;5.30;4.33;;;;;;;13.87;100.00;95070.66;4907495;29;21138;-81
2023/05/19 01:28:42;;;;;;;5.33;4.40;;;;;;;13.86;100.00;95064.56;4915585;29;20495;-82
2023/05/19 01:31:12;;;;;;;5.17;3.90;;;;;;;13.86;100.00;95064.56;4915492;29;20461;-83
2023/05/19 01:33:41;;;;;;;6.80;5.03;;;;;;;13.84;100.00;95058.59;4915361;29;20444;-82
2023/05/19 01:36:10;;;;;;;4.87;4.47;;;;;;;13.85;100.00;95065.53;4915671;29;20444;-82
2023/05/19 01:38:38;;;;;;;5.57;4.80;;;;;;;13.84;100.00;95068.31;4915473;29;20457;-82
2023/05/19 01:41:07;;;;;;;6.00;5.37;;;;;;;13.82;100.00;95070.28;4915517;29;20451;-82
2023/05/19 01:43:34;;;;;;;6.90;4.20;;;;;;;13.82;100.00;95071.13;4915547;29;20510;-82
2023/05/19 01:46:03;;;;;;;7.53;6.10;;;;;;;13.80;100.00;95077.50;4915688;29;20479;-82
2023/05/19 01:48:33;;;;;;;7.50;5.10;;;;;;;13.76;100.00;95076.16;4915368;29;20983;-82
2023/05/19 01:51:00;;;;;;;6.53;4.90;;;;;;;13.76;100.00;95071.69;4915493;29;20448;-82
2023/05/19 01:53:26;;;;;;;5.63;5.17;;;;;;;13.78;100.00;95069.75;4916160;29;20454;-83
2023/05/19 01:55:55;;;;;;;6.60;4.07;;;;;;;13.79;100.00;95070.56;4915214;29;20456;-83
2023/05/19 01:58:31;;;;;;;7.67;5.10;;;;;;;13.80;100.00;95066.97;4884502;29;20511;-83
2023/05/19 02:01:03;;;;;;;5.67;5.07;;;;;;;13.81;100.00;95077.38;4915418;29;20439;-82
2023/05/19 02:03:44;;;;;;;6.37;4.77;;;;;;;13.77;100.00;95086.56;4980947;28;20454;-83
2023/05/19 02:06:22;;;;;;;6.23;5.00;;;;;;;13.74;100.00;95078.09;5009794;28;20446;-82
2023/05/19 02:08:57;;;;;;;6.03;5.43;;;;;;;13.74;100.00;95072.81;5013654;28;20481;-82
2023/05/19 02:11:30;;;;;;;4.90;4.50;;;;;;;13.81;100.00;95068.63;4995743;28;20481;-82
2023/05/19 02:14:01;;;;;;;10.83;4.90;;;;;;;13.85;100.00;95078.72;5013647;28;20442;-82
2023/05/19 02:16:29;;;;;;;4.97;4.50;;;;;;;13.84;100.00;95073.59;5014098;28;20474;-83
2023/05/19 02:18:58;;;;;;;5.20;4.47;;;;;;;13.84;100.00;95070.97;5013610;28;20957;-82
2023/05/19 02:21:25;;;;;;;4.37;4.07;;;;;;;13.84;100.00;95079.72;5013706;28;20443;-82
2023/05/19 02:23:51;;;;;;;4.93;4.53;;;;;;;13.83;100.00;95074.59;5013493;28;20862;-82
2023/05/19 02:26:18;;;;;;;4.70;4.30;;;;;;;13.81;100.00;95076.53;5013582;28;20907;-82
2023/05/19 02:28:45;;;;;;;5.57;5.07;;;;;;;13.80;100.00;95080.16;5013097;28;21032;-82
2023/05/19 02:31:12;;;;;;;13.20;4.30;;;;;;;13.77;100.00;95073.38;5014284;28;20438;-82
2023/05/19 02:33:38;;;;;;;5.90;5.30;;;;;;;13.76;100.00;95078.78;5017496;28;21050;-82
2023/05/19 02:36:07;;;;;;;6.67;4.30;;;;;;;13.73;100.00;95087.81;4999177;28;20432;-83
2023/05/19 02:38:35;;;;;;;5.80;5.00;;;;;;;13.69;100.00;95086.44;5017230;28;20435;-82
2023/05/19 02:41:02;;;;;;;7.00;4.90;;;;;;;13.70;100.00;95089.91;5016997;28;21038;-83
2023/05/19 02:43:29;;;;;;;5.87;5.27;;;;;;;13.69;100.00;95085.63;5017338;28;20443;-82
2023/05/19 02:45:56;;;;;;;5.60;5.10;;;;;;;13.70;100.00;95082.00;5017477;28;20933;-82
2023/05/19 02:48:22;;;;;;;9.33;4.33;;;;;;;13.68;100.00;95089.22;5016610;28;20479;-82
2023/05/19 02:50:49;;;;;;;6.50;4.83;;;;;;;13.64;100.00;95086.88;5016585;28;20455;-83
2023/05/19 02:53:17;;;;;;;9.80;5.90;;;;;;;13.60;100.00;95092.59;5017113;28;20494;-83
2023/05/19 02:55:44;;;;;;;6.87;5.70;;;;;;;13.53;100.00;95091.47;5016646;28;20435;-83
2023/05/19 02:58:11;;;;;;;8.60;6.27;;;;;;;13.51;100.00;95088.16;5016769;28;20447;-83
2023/05/19 03:00:38;;;;;;;8.30;6.90;;;;;;;13.54;100.00;95090.50;5016567;28;20454;-82
2023/05/19 03:03:05;;;;;;;9.57;6.00;;;;;;;13.54;100.00;95093.97;5017092;28;20443;-84
2023/05/19 03:05:31;;;;;;;9.97;7.00;;;;;;;13.51;100.00;95096.91;5016697;28;20558;-83
2023/05/19 03:07:58;;;;;;;7.20;5.70;;;;;;;13.46;100.00;95088.59;5016932;28;20435;-84
2023/05/19 03:10:26;;;;;;;9.30;6.03;;;;;;;13.50;100.00;95097.88;5016547;28;20914;-83
2023/05/19 03:12:53;;;;;;;12.90;5.80;;;;;;;13.47;100.00;95100.78;5016746;28;20439;-84
2023/05/19 03:15:22;;;;;;;7.60;5.93;;;;;;;13.48;100.00;95099.81;5016900;28;20482;-84
2023/05/19 03:17:48;;;;;;;8.90;6.50;;;;;;;13.53;100.00;95099.38;5016858;28;20436;-84
2023/05/19 03:20:15;;;;;;;9.47;6.13;;;;;;;13.53;100.00;95102.03;5016741;28;20436;-84
2023/05/19 03:22:42;;;;;;;8.50;5.80;;;;;;;13.54;100.00;95104.53;5016570;28;20456;-84
2023/05/19 03:25:09;;;;;;;12.70;6.13;;;;;;;13.59;100.00;95102.31;5016250;28;20432;-84
2023/05/19 03:27:38;;;;;;;6.87;5.47;;;;;;;13.60;100.00;95101.34;5016164;28;20917;-84
2023/05/19 03:30:05;;;;;;;6.57;5.23;;;;;;;13.70;100.00;95098.66;5014281;28;20487;-84
2023/05/19 03:32:32;;;;;;;16.00;5.90;;;;;;;13.70;100.00;95093.38;5016075;28;20442;-84
2023/05/19 03:34:59;;;;;;;8.23;5.60;;;;;;;13.74;100.00;95100.03;5014366;28;20497;-83
2023/05/19 03:37:26;;;;;;;7.63;6.03;;;;;;;13.83;100.00;95103.59;5016271;28;20443;-83
2023/05/19 03:39:53;;;;;;;7.20;6.30;;;;;;;13.82;100.00;95104.56;5016305;28;20827;-83
2023/05/19 03:42:19;;;;;;;7.63;6.33;;;;;;;13.91;100.00;95101.91;5013581;28;20531;-85
2023/05/19 03:44:47;;;;;;;6.77;6.07;;;;;;;14.06;100.00;95102.25;4997713;28;20494;-85
2023/05/19 03:47:14;;;;;;;6.60;5.90;;;;;;;14.20;100.00;95095.69;5016690;28;20508;-85
2023/05/19 03:49:41;;;;;;;6.00;5.47;;;;;;;14.29;100.00;95100.06;5016005;28;21292;-82
2023/05/19 03:52:08;;;;;;;6.80;6.20;;;;;;;14.48;100.00;95115.00;5015712;28;20451;-82
2023/05/19 03:54:37;;;;;;;8.40;6.13;;;;;;;14.72;100.00;95111.75;5014026;28;20486;-82
2023/05/19 03:57:05;;;;;;;8.65;7.00;;;;;;;14.97;97.13;95120.75;5015446;28;20538;-82
2023/05/19 03:59:31;;;;;;;8.20;6.90;;;;;;;15.02;96.97;95121.13;5013424;28;20208;-82
2023/05/19 04:02:00;;;;;;;11.90;7.47;;;;;;;15.01;97.28;95120.31;5015806;28;20491;-83
2023/05/19 04:04:27;;;;;;;11.90;8.13;;;;;;;15.02;95.93;95116.69;5015938;28;20479;-83
2023/05/19 04:06:54;;;;;;;9.20;6.97;;;;;;;15.45;100.00;95113.25;5015516;28;20527;-83
2023/05/19 04:09:22;;;;;;;7.90;7.10;;;;;;;16.41;96.25;95121.06;5015528;28;20490;-83
2023/05/19 04:11:49;;;;;;;9.50;7.47;;;;;;;17.28;89.82;95128.56;5015802;28;20449;-83
2023/05/19 04:14:16;;;;;;;8.30;6.73;;;;;;;17.89;84.92;95132.53;5015546;28;20808;-83
2023/05/19 04:16:43;;;;;;;7.60;6.27;;;;;;;18.18;82.09;95139.94;5015304;28;20475;-82
2023/05/19 04:19:11;;;;;;;10.53;7.30;;;;;;;18.47;81.45;95134.03;5015301;28;20900;-82
2023/05/19 04:21:38;;;;;;;14.30;8.10;;;;;;;18.74;80.03;95140.75;5014858;28;20462;-82
2023/05/19 04:24:05;;;;;;;8.30;7.07;;;;;;;19.28;79.00;95150.59;5014672;28;20459;-83
2023/05/19 04:26:33;;;;;;;11.83;8.00;;;;;;;19.71;77.14;95151.81;5015134;28;20442;-82
2023/05/19 04:29:00;;;;;;;8.43;7.63;;;;;;;19.98;75.42;95153.06;5015410;28;20479;-84
2023/05/19 04:31:27;;;;;;;10.50;6.97;;;;;;;19.96;72.74;95163.06;5014939;28;20939;-84
2023/05/19 04:33:54;;;;;;;8.57;7.73;;;;;;;19.95;73.03;95158.72;4997174;28;20444;-84
2023/05/19 04:36:22;;;;;;;7.50;6.80;;;;;;;20.02;74.16;95157.00;5014912;28;20438;-83
2023/05/19 04:38:53;;;;;;;8.83;6.73;;;;;;;20.10;72.92;95159.59;5014628;28;21240;-84
2023/05/19 04:41:20;;;;;;;6.43;5.83;;;;;;;20.24;74.13;95166.78;5016346;28;20495;-83
2023/05/19 04:43:48;;;;;;;9.57;7.50;;;;;;;20.37;75.35;95158.97;5014581;28;20443;-88
2023/05/19 04:46:15;;;;;;;8.80;6.60;;;;;;;20.55;73.68;95155.97;5016047;28;20240;-87
2023/05/19 04:48:42;;;;;;;8.50;7.70;;;;;;;20.64;70.13;95164.69;5014477;28;20473;-84
2023/05/19 04:51:12;;;;;;;10.37;8.17;;;;;;;20.73;70.48;95168.91;5015165;28;20464;-83
2023/05/19 04:53:41;;;;;;;10.80;8.30;;;;;;;20.83;73.30;95160.63;5014451;28;20433;-84
2023/05/19 04:56:12;;;;;;;12.87;8.40;;;;;;;20.64;69.05;95167.34;5014743;28;20457;-85
2023/05/19 04:58:40;;;;;;;11.00;8.10;;;;;;;20.75;75.52;95160.72;5014572;28;20891;-86
2023/05/19 05:01:08;;;;;;;13.33;9.90;;;;;;;20.79;74.18;95157.50;5014746;28;20452;-85
2023/05/19 05:03:35;;;;;;;11.40;10.30;;;;;;;20.70;69.40;95163.94;5014378;28;20842;-83
2023/05/19 05:06:02;;;;;;;14.17;9.17;;;;;;;20.71;69.29;95169.09;5014805;28;20520;-84
2023/05/19 05:08:29;;;;;;;11.60;8.80;;;;;;;20.63;68.47;95171.03;4996378;28;20947;-84
2023/05/19 05:10:58;;;;;;;13.83;9.20;;;;;;;20.73;71.39;95159.06;5014280;28;20491;-85
2023/05/19 05:13:25;;;;;;;15.47;9.20;;;;;;;20.89;67.79;95158.03;5014197;28;20445;-83
2023/05/19 05:15:52;;;;;;;17.70;9.33;;;;;;;20.71;67.35;95171.75;5014029;28;20485;-83
2023/05/19 05:18:20;;;;;;;10.97;9.07;;;;;;;20.60;67.49;95164.25;5014493;28;20457;-82
2023/05/19 05:20:47;;;;;;;12.50;9.17;;;;;;;20.69;67.32;95165.78;5014332;28;20464;-84
2023/05/19 05:23:15;;;;;;;12.47;9.87;;;;;;;20.67;67.78;95169.66;5013902;28;20440;-84
2023/05/19 05:25:43;;;;;;;13.47;9.07;;;;;;;20.86;68.63;95165.59;5013861;28;20498;-84
2023/05/19 05:28:11;;;;;;;14.70;8.73;;;;;;;21.13;68.34;95164.91;5014296;28;20874;-84
2023/05/19 05:30:38;;;;;;;14.53;8.87;;;;;;;21.21;66.29;95164.78;5013895;28;20546;-84
2023/05/19 05:33:06;;;;;;;13.40;9.87;;;;;;;21.46;67.32;95175.13;5013959;28;20429;-83
2023/05/19 05:35:32;;;;;;;11.73;8.67;;;;;;;21.68;66.77;95170.59;5013955;28;20449;-84
2023/05/19 05:38:00;;;;;;;13.00;10.03;;;;;;;21.95;65.14;95169.81;5014028;28;21262;-84
2023/05/19 05:40:27;;;;;;;13.40;9.10;;;;;;;22.18;64.88;95162.41;5013591;28;20455;-84
2023/05/19 05:42:55;;;;;;;14.07;8.20;;;;;;;22.38;64.90;95154.53;5012312;28;20557;-84
2023/05/19 05:45:23;;;;;;;11.30;7.90;;;;;;;22.63;61.95;95154.06;5012321;28;20452;-84
2023/05/19 05:47:50;;;;;;;10.60;8.43;;;;;;;22.87;61.95;95158.97;5012250;28;20928;-83
2023/05/19 05:50:18;;;;;;;17.17;9.40;;;;;;;23.04;61.25;95151.41;4993594;28;20554;-84
2023/05/19 05:52:46;;;;;;;9.43;8.43;;;;;;;23.24;60.38;95154.97;5012142;28;20440;-84
2023/05/19 05:55:14;;;;;;;12.83;9.20;;;;;;;23.28;60.39;95156.22;5012381;28;20449;-84
2023/05/19 05:57:41;;;;;;;13.27;9.43;;;;;;;23.02;58.36;95156.13;5012440;28;20438;-84
2023/05/19 06:00:14;;;;;;;14.80;9.50;;;;;;;22.94;60.11;95158.97;5012424;28;20487;-83
2023/05/19 06:02:43;;;;;;;10.77;9.00;;;;;;;22.53;58.61;95165.09;5012200;28;20445;-84
2023/05/19 06:05:11;;;;;;;11.17;9.67;;;;;;;22.36;59.75;95167.28;4994234;28;20853;-83
2023/05/19 06:07:38;;;;;;;10.43;8.60;;;;;;;22.52;61.44;95168.81;5018246;28;20454;-84
2023/05/19 06:10:06;;;;;;;12.20;9.40;;;;;;;22.87;62.87;95172.34;5018439;28;20489;-84
2023/05/19 06:12:33;;;;;;;15.27;9.53;;;;;;;23.08;59.02;95166.84;5018515;28;20879;-84
2023/05/19 06:15:00;;;;;;;12.83;9.43;;;;;;;23.29;58.29;95171.25;5019145;28;21188;-84
2023/05/19 06:17:27;;;;;;;16.57;8.80;;;;;;;23.17;57.23;95171.03;5018891;28;20451;-84
2023/05/19 06:19:55;;;;;;;9.60;8.40;;;;;;;22.91;59.10;95170.09;5018579;28;20445;-85
2023/05/19 06:22:22;;;;;;;13.20;7.97;;;;;;;22.76;58.86;95168.31;5018689;28;20510;-84
2023/05/19 06:24:49;;;;;;;18.40;9.13;;;;;;;22.34;58.30;95173.84;5018688;28;20935;-84
2023/05/19 06:27:15;;;;;;;14.53;9.00;;;;;;;21.71;61.36;95172.91;5018932;28;20488;-83
2023/05/19 06:29:42;;;;;;;10.93;8.00;;;;;;;22.04;63.91;95163.34;5018435;28;20537;-84
2023/05/19 06:32:09;;;;;;;23.30;10.73;;;;;;;22.37;62.05;95165.44;5018654;28;20458;-84
2023/05/19 06:34:37;;;;;;;10.77;8.27;;;;;;;22.64;60.50;95164.56;4989202;28;20454;-81
2023/05/19 06:37:05;;;;;;;22.90;10.13;;;;;;;22.81;59.66;95165.91;5020808;28;20464;-85
2023/05/19 06:39:32;;;;;;;12.37;8.90;;;;;;;23.09;58.21;95178.38;5018204;28;20932;-84
2023/05/19 06:41:58;;;;;;;10.43;7.77;;;;;;;23.33;58.02;95172.50;5018409;28;20460;-85
2023/05/19 06:44:25;;;;;;;15.60;8.27;;;;;;;23.53;56.38;95171.72;5018702;28;20449;-85
2023/05/19 06:46:52;;;;;;;11.13;7.70;;;;;;;23.70;55.59;95173.84;5018485;28;20458;-85
2023/05/19 06:49:19;;;;;;;7.00;6.37;;;;;;;23.83;57.27;95173.03;5018082;28;20944;-85
2023/05/19 06:51:46;;;;;;;8.77;7.33;;;;;;;24.05;56.30;95174.50;5018169;28;20964;-85
2023/05/19 06:54:14;;;;;;;9.03;7.90;;;;;;;24.01;54.68;95173.28;5018291;28;20449;-84
2023/05/19 06:56:41;;;;;;;14.00;7.10;;;;;;;24.22;55.17;95171.38;5018480;28;20487;-85
2023/05/19 06:59:08;;;;;;;10.33;7.53;;;;;;;24.10;54.11;95179.25;5018610;28;20454;-85
2023/05/19 07:01:35;;;;;;;7.93;7.17;;;;;;;24.07;64.24;95183.16;5018145;28;20443;-83
2023/05/19 07:04:01;;;;;;;7.03;6.33;;;;;;;24.10;53.43;95177.38;5018130;28;20449;-84
2023/05/19 07:06:28;;;;;;;10.27;7.67;;;;;;;23.94;54.29;95175.09;5018062;28;20441;-84
2023/05/19 07:08:55;;;;;;;8.50;7.13;;;;;;;23.79;52.93;95180.66;5018644;28;20450;-85
2023/05/19 07:11:23;;;;;;;12.60;7.37;;;;;;;23.49;53.27;95169.47;5018149;28;20489;-85
2023/05/19 07:13:50;;;;;;;12.20;7.33;;;;;;;23.31;53.55;95165.69;5018448;28;20449;-85
2023/05/19 07:16:17;;;;;;;12.63;6.90;;;;;;;23.31;54.55;95173.72;5018382;28;20845;-85
2023/05/19 07:18:43;;;;;;;10.13;8.57;;;;;;;23.47;57.34;95181.41;5015382;28;20434;-84
2023/05/19 07:21:10;;;;;;;10.30;7.47;;;;;;;23.34;53.77;95181.34;5014837;28;20457;-84
2023/05/19 07:23:37;;;;;;;8.87;8.10;;;;;;;23.55;55.29;95180.38;5015187;28;20454;-84
2023/05/19 07:26:04;;;;;;;11.30;8.23;;;;;;;23.80;53.63;95181.50;5015030;28;20472;-84
2023/05/19 07:28:33;;;;;;;14.20;7.93;;;;;;;23.83;55.18;95186.44;5014807;28;20448;-84
2023/05/19 07:31:00;;;;;;;12.50;7.50;;;;;;;23.89;56.48;95180.25;5014983;28;20597;-84
2023/05/19 07:33:27;;;;;;;12.70;8.27;;;;;;;23.78;55.26;95178.19;5014662;28;20865;-85
2023/05/19 07:35:53;;;;;;;8.80;8.00;;;;;;;23.32;54.69;95173.53;4996226;28;20933;-84
2023/05/19 07:38:20;;;;;;;11.47;7.97;;;;;;;23.34;57.66;95176.00;5014721;28;20449;-84
2023/05/19 07:40:47;;;;;;;9.53;7.90;;;;;;;23.53;58.58;95177.91;4996173;28;20508;-85
2023/05/19 07:43:13;;;;;;;9.83;8.20;;;;;;;23.72;58.45;95176.34;5014469;28;20795;-85
2023/05/19 07:45:42;;;;;;;8.93;7.83;;;;;;;23.88;58.01;95178.59;5014382;28;20984;-85
2023/05/19 07:48:08;;;;;;;17.90;8.20;;;;;;;23.88;57.81;95175.09;5014419;28;20447;-85
2023/05/19 07:50:35;;;;;;;10.20;8.10;;;;;;;24.02;56.88;95177.59;5014548;28;20498;-85
2023/05/19 07:53:02;;;;;;;10.63;8.27;;;;;;;24.10;56.92;95172.03;5014385;28;20451;-84
2023/05/19 07:55:29;;;;;;;11.37;7.97;;;;;;;24.14;55.49;95172.44;5014613;28;20561;-84
2023/05/19 07:57:56;;;;;;;10.20;8.23;;;;;;;23.84;56.11;95166.66;5014294;28;20461;-85
2023/05/19 08:00:23;;;;;;;14.90;7.83;;;;;;;23.49;56.29;95172.13;5013795;28;20537;-85
2023/05/19 08:02:51;;;;;;;11.33;7.90;;;;;;;23.41;57.38;95168.81;5014246;28;20455;-86
2023/05/19 08:05:18;;;;;;;13.30;8.80;;;;;;;23.53;57.63;95169.88;5014537;28;20452;-85
2023/05/19 08:07:45;;;;;;;11.97;9.33;;;;;;;23.62;58.38;95173.22;5014120;28;20941;-85
2023/05/19 08:10:12;;;;;;;17.33;9.23;;;;;;;23.72;58.77;95176.34;5013876;28;20486;-85
2023/05/19 08:12:38;;;;;;;12.17;9.33;;;;;;;23.64;57.61;95171.16;5014027;28;20447;-85
2023/05/19 08:15:06;;;;;;;11.00;9.27;;;;;;;23.66;55.67;95174.44;5013712;28;20497;-84
2023/05/19 08:17:33;;;;;;;11.40;8.90;;;;;;;23.66;56.67;95169.91;5014211;28;20858;-85
2023/05/19 08:20:03;;;;;;;10.00;8.30;;;;;;;23.78;56.47;95175.53;5014161;28;20528;-85
2023/05/19 08:22:30;;;;;;;12.40;9.83;;;;;;;23.87;56.51;95173.47;5014027;28;20861;-85
2023/05/19 08:24:57;;;;;;;13.60;10.17;;;;;;;24.02;56.19;95164.19;5013969;28;20508;-85
2023/05/19 08:27:24;;;;;;;11.33;9.53;;;;;;;24.16;56.42;95169.53;5013673;28;20482;-85
2023/05/19 08:29:50;;;;;;;11.40;9.13;;;;;;;24.16;54.17;95161.50;5013340;28;20440;-85
2023/05/19 08:32:17;;;;;;;11.27;9.40;;;;;;;24.21;55.78;95167.06;5013510;28;20939;-85
2023/05/19 08:34:44;;;;;;;12.50;8.80;;;;;;;24.23;55.65;95165.81;5013561;28;20784;-85
2023/05/19 08:37:12;;;;;;;10.70;8.97;;;;;;;24.30;53.47;95165.88;5013656;28;20447;-85
2023/05/19 08:39:39;;;;;;;12.27;10.10;;;;;;;24.43;55.71;95170.38;5013559;28;20459;-85
2023/05/19 08:42:08;;;;;;;15.17;10.63;;;;;;;24.48;54.36;95167.88;5013497;28;20454;-84
2023/05/19 08:44:35;;;;;;;16.13;10.40;;;;;;;24.51;54.01;95176.34;5013491;28;20463;-85
2023/05/19 08:47:03;;;;;;;11.30;9.23;;;;;;;24.00;53.07;95171.63;4978853;28;20802;-85
2023/05/19 08:49:33;;;;;;;17.33;11.60;;;;;;;24.00;54.52;95168.94;5013436;28;20509;-85
2023/05/19 08:52:06;;;;;;;17.73;10.33;;;;;;;23.97;55.36;95166.66;5013152;28;20487;-85
2023/05/19 08:54:42;;;;;;;13.70;10.07;;;;;;;23.79;55.72;95155.72;5013085;28;21013;-85
2023/05/19 08:57:09;;;;;;;15.37;12.10;;;;;;;23.74;54.62;95164.38;5013132;28;20482;-85
2023/05/19 08:59:37;;;;;;;13.77;10.83;;;;;;;23.55;55.75;95157.09;5013137;28;20980;-85
2023/05/19 09:02:05;;;;;;;19.60;10.37;;;;;;;23.41;55.07;95161.59;5013239;28;20462;-85
2023/05/19 09:04:32;;;;;;;12.77;11.43;;;;;;;23.21;56.41;95158.06;4978595;28;20537;-85
2023/05/19 09:07:02;;;;;;;18.73;10.77;;;;;;;22.80;57.82;95163.41;5012996;28;20508;-85
2023/05/19 09:09:29;;;;;;;16.70;13.00;;;;;;;22.45;59.28;95155.41;5013188;28;20445;-85
2023/05/19 09:11:58;;;;;;;17.90;13.10;;;;;;;22.41;61.45;95148.81;5012787;28;20495;-85
2023/05/19 09:14:24;;;;;;;16.07;11.07;;;;;;;21.74;60.56;95151.16;5012991;28;20485;-85
2023/05/19 09:16:51;;;;;;;15.73;12.47;;;;;;;21.64;63.39;95144.28;5013200;28;20487;-85
2023/05/19 09:19:19;;;;;;;17.80;11.50;;;;;;;21.87;64.28;95145.91;4978400;28;20472;-85
2023/05/19 09:21:46;;;;;;;18.17;11.10;;;;;;;22.06;62.35;95133.75;5012872;28;20451;-85
2023/05/19 09:24:13;;;;;;;15.77;11.93;;;;;;;22.27;62.73;95139.06;5012659;28;20871;-84
2023/05/19 09:26:41;;;;;;;17.77;12.00;;;;;;;22.44;62.98;95139.56;5012746;28;20530;-85
2023/05/19 09:29:13;;;;;;;17.63;11.57;;;;;;;22.22;60.70;95133.44;5012756;28;20450;-84
2023/05/19 09:31:40;;;;;;;15.20;11.70;;;;;;;22.25;62.36;95136.56;5012621;28;20989;-85
2023/05/19 09:34:13;;;;;;;11.40;9.60;;;;;;;22.07;62.57;95135.41;5012521;28;20471;-85
2023/05/19 09:36:40;;;;;;;10.90;9.80;;;;;;;22.23;63.79;95130.56;4977930;28;20444;-85
2023/05/19 09:39:13;;;;;;;13.40;11.60;;;;;;;22.22;63.65;95133.44;5012760;28;20472;-85
2023/05/19 09:41:40;;;;;;;13.57;10.77;;;;;;;22.14;62.64;95128.25;5011975;28;20531;-84
2023/05/19 09:44:07;;;;;;;17.87;10.80;;;;;;;22.14;62.89;95136.28;5012505;28;20440;-85
2023/05/19 09:46:36;;;;;;;14.03;11.83;;;;;;;21.62;63.15;95127.63;5012264;28;20537;-85
2023/05/19 09:49:09;;;;;;;13.50;10.90;;;;;;;21.89;60.90;95128.66;4978271;28;20452;-85
2023/05/19 09:51:36;;;;;;;17.50;10.40;;;;;;;22.02;62.42;95122.59;5012429;28;20577;-85
2023/05/19 09:54:04;;;;;;;16.80;11.33;;;;;;;22.01;63.92;95126.31;5012396;28;20535;-85
2023/05/19 09:56:34;;;;;;;12.33;11.13;;;;;;;21.75;61.10;95120.75;5012418;28;20539;-85
2023/05/19 09:59:03;;;;;;;12.70;10.03;;;;;;;21.98;63.24;95125.88;5012196;28;20447;-84
2023/05/19 10:01:32;;;;;;;14.63;11.53;;;;;;;21.92;61.12;95122.09;5012413;28;20497;-85
2023/05/19 10:04:00;;;;;;;14.97;11.43;;;;;;;21.88;62.08;95123.50;5012328;28;20471;-85
2023/05/19 10:06:27;;;;;;;10.70;9.63;;;;;;;21.98;62.94;95116.00;5012248;28;20501;-85
2023/05/19 10:08:55;;;;;;;24.67;10.57;;;;;;;22.10;65.27;95119.81;5012302;28;20862;-82
2023/05/19 10:11:23;;;;;;;13.53;11.43;;;;;;;22.22;63.31;95120.91;5012394;28;20481;-83
2023/05/19 10:13:51;;;;;;;18.90;11.13;;;;;;;22.32;62.55;95117.06;5012056;28;20510;-85
2023/05/19 10:16:21;;;;;;;16.57;10.20;;;;;;;21.93;61.47;95111.22;5013313;28;20522;-84
2023/05/19 10:18:52;;;;;;;11.00;9.87;;;;;;;21.87;60.24;95108.50;5013669;28;20456;-86
2023/05/19 10:21:21;;;;;;;14.40;10.53;;;;;;;21.90;62.70;95113.44;5013684;28;20450;-84
2023/05/19 10:23:47;;;;;;;16.93;12.00;;;;;;;21.71;63.11;95111.47;5013751;28;20443;-86
2023/05/19 10:26:15;;;;;;;14.63;11.00;;;;;;;21.73;63.53;95104.09;5013409;28;20501;-86
2023/05/19 10:28:45;;;;;;;13.80;10.47;;;;;;;21.97;64.09;95100.97;5013014;28;20477;-88
2023/05/19 10:31:18;;;;;;;13.03;10.57;;;;;;;21.92;59.63;95101.56;5012922;28;20842;-85
2023/05/19 10:34:00;;;;;;;12.83;9.50;;;;;;;22.17;61.08;95093.94;4978448;28;20509;-84
2023/05/19 10:36:48;;;;;;;14.50;9.60;;;;;;;22.37;64.19;95087.88;5013391;28;20977;-85
2023/05/19 10:39:18;;;;;;;16.03;8.40;;;;;;;22.61;65.77;95090.06;4971850;28;20455;-85
2023/05/19 10:42:00;;;;;;;11.77;8.43;;;;;;;22.87;64.92;95089.38;4971965;28;20446;-85
2023/05/19 10:44:40;;;;;;;15.13;11.10;;;;;;;23.07;62.57;95100.13;4971923;28;20442;-85
2023/05/19 10:47:10;;;;;;;13.40;10.10;;;;;;;23.18;60.24;95091.53;4972043;28;21017;-87
2023/05/19 10:49:37;;;;;;;20.67;11.27;;;;;;;23.15;60.72;95091.94;4972114;28;20460;-86
2023/05/19 10:52:20;;;;;;;15.87;10.73;;;;;;;23.27;59.69;95084.94;4972769;28;20467;-85
2023/05/19 10:54:47;;;;;;;11.00;9.70;;;;;;;22.56;57.19;95085.31;4975592;28;20519;-86
2023/05/19 10:57:17;;;;;;;12.07;9.70;;;;;;;22.61;55.56;95076.69;4975738;28;20846;-87
2023/05/19 10:59:44;;;;;;;16.73;10.67;;;;;;;22.77;58.50;95081.69;4975580;28;20438;-85
2023/05/19 11:02:31;;;;;;;11.57;9.77;;;;;;;22.64;56.48;95078.97;4975920;28;20520;-85
2023/05/19 11:05:08;;;;;;;13.13;10.33;;;;;;;22.83;56.38;95080.06;4975729;28;20510;-89
2023/05/19 11:07:36;;;;;;;11.07;9.53;;;;;;;22.77;56.56;95081.69;4975429;28;20938;-85
2023/05/19 11:10:07;;;;;;;11.07;9.97;;;;;;;22.91;54.62;95079.09;4975377;28;20452;-85
2023/05/19 11:12:41;;;;;;;11.80;9.60;;;;;;;22.77;55.01;95079.00;4975227;28;20575;-85
2023/05/19 11:15:11;;;;;;;11.60;10.17;;;;;;;22.87;56.44;95076.00;4975088;28;20553;-86
2023/05/19 11:17:39;;;;;;;13.93;11.10;;;;;;;22.98;55.74;95075.41;5015779;28;21022;-85
2023/05/19 11:20:09;;;;;;;12.50;10.50;;;;;;;23.07;57.11;95079.53;5016339;28;20446;-85
2023/05/19 11:22:39;;;;;;;15.77;10.17;;;;;;;22.44;56.32;95068.16;5016491;28;20501;-85
2023/05/19 11:25:08;;;;;;;12.83;10.27;;;;;;;22.37;58.05;95074.53;5016645;28;20477;-84
2023/05/19 11:27:37;;;;;;;15.03;10.20;;;;;;;22.08;58.04;95065.72;5016436;28;20446;-85
2023/05/19 11:30:13;;;;;;;11.73;9.20;;;;;;;21.89;56.01;95066.38;5016407;28;20449;-84
2023/05/19 11:32:41;;;;;;;10.47;9.40;;;;;;;21.68;56.96;95069.09;5014320;28;20842;-85
2023/05/19 11:35:09;;;;;;;11.30;10.10;;;;;;;21.60;58.04;95075.41;5016505;28;20455;-85
2023/05/19 11:37:39;;;;;;;23.17;11.00;;;;;;;21.67;59.34;95081.63;5016015;28;20459;-84